Leisure, Indiana
Current Conditions -  °F | °C
As of 3:35 AM on Thursday 23 Oct 2014 (Local Time) from KMZZ Reporting Station
Haze Haze  
Wind Chill: 35°   Ceiling: Unl
Heat Index: 35°   Visibility: 2.5mi
Dew Point: 34°   Wind: 0mph
Humidity: 98%   Direction: NA
Pressure: 30.28"   Gusts: NA
Location:  40.3067°N, 85.834°W
Report Text: KMZZ 230735Z AUTO 00000KT 2 1/2SM BR CLR 01/01 A3028 RMK AO2 T00140011
Loading
Personal Weather Stations






























Interactive Weather Map
Tropical Storm Tracking
New forecast layout! Learn more

10-Day Weather Forecast

Advertisements
Track Severe Weather on mobile